Time;durP1;ratioP1;P1;durP2;ratioP2;P2;SDS_P1;SDS_P2;PMS_P1;PMS_P2;Temp;Humidity;BMP_temperature;BMP_pressure;BME280_temperature;BME280_humidity;BME280_pressure;Samples;Min_cycle;Max_cycle;Signal;HPM_P1;HPM_P2
2023/10/24 00:00:15;;;;;;;11.73;9.50;;;13.60;99.90;;;;;;5002117;28;20198;-76
2023/10/24 00:02:41;;;;;;;11.10;9.27;;;13.60;99.90;;;;;;4999043;28;20193;-77
2023/10/24 00:05:07;;;;;;;13.33;9.73;;;13.60;99.90;;;;;;4995143;28;20499;-76
2023/10/24 00:07:33;;;;;;;10.67;9.57;;;13.50;99.90;;;;;;4999686;28;20284;-77
2023/10/24 00:09:59;;;;;;;13.20;10.40;;;13.60;99.90;;;;;;5000255;28;20817;-77
2023/10/24 00:12:24;;;;;;;15.03;9.83;;;13.50;99.90;;;;;;4999108;28;20420;-76
2023/10/24 00:14:50;;;;;;;11.43;9.63;;;13.50;99.90;;;;;;4996196;28;20657;-76
2023/10/24 00:17:15;;;;;;;17.30;12.03;;;13.50;99.90;;;;;;5002432;28;20388;-76
2023/10/24 00:19:41;;;;;;;14.17;10.60;;;13.50;99.90;;;;;;4997958;28;20221;-75
2023/10/24 00:22:07;;;;;;;11.63;9.93;;;13.50;99.90;;;;;;5004183;28;20251;-77
2023/10/24 00:24:32;;;;;;;12.10;10.20;;;13.60;99.90;;;;;;5000877;28;20235;-77
2023/10/24 00:26:58;;;;;;;14.80;10.70;;;13.60;99.90;;;;;;5003381;28;20248;-79
2023/10/24 00:29:24;;;;;;;11.97;10.87;;;13.50;99.90;;;;;;5000820;28;20280;-78
2023/10/24 00:31:49;;;;;;;11.57;10.17;;;13.60;99.90;;;;;;5001319;28;20189;-78
2023/10/24 00:34:16;;;;;;;14.20;10.77;;;13.60;99.90;;;;;;5004036;28;20177;-77
2023/10/24 00:36:43;;;;;;;12.60;10.13;;;13.60;99.90;;;;;;4995909;28;20189;-76
2023/10/24 00:39:09;;;;;;;11.67;10.10;;;13.60;99.90;;;;;;4997234;28;20467;-76
2023/10/24 00:41:35;;;;;;;10.83;9.63;;;13.70;99.90;;;;;;5015414;28;20443;-76
2023/10/24 00:44:00;;;;;;;10.83;9.73;;;13.70;99.90;;;;;;4996458;28;20189;-76
2023/10/24 00:46:27;;;;;;;11.90;10.63;;;13.70;99.90;;;;;;4996397;28;20743;-76
2023/10/24 00:48:53;;;;;;;11.93;10.67;;;13.70;99.90;;;;;;4993579;28;20205;-76
2023/10/24 00:51:20;;;;;;;13.43;9.73;;;13.80;99.90;;;;;;4994890;28;20439;-77
2023/10/24 00:53:46;;;;;;;11.80;9.90;;;13.80;99.90;;;;;;4995471;28;20204;-76
2023/10/24 00:56:12;;;;;;;11.00;9.77;;;13.80;99.90;;;;;;4990983;28;20444;-76
2023/10/24 00:58:39;;;;;;;10.50;9.47;;;13.80;99.90;;;;;;4995799;28;21269;-76
2023/10/24 01:01:10;;;;;;;11.87;9.20;;;13.90;99.90;;;;;;4995796;28;20447;-76
2023/10/24 01:03:36;;;;;;;18.20;12.80;;;13.90;99.90;;;;;;4990968;28;20469;-78
2023/10/24 01:06:02;;;;;;;12.10;10.97;;;13.90;99.90;;;;;;4997638;28;20483;-75
2023/10/24 01:08:27;;;;;;;13.23;10.50;;;13.80;99.90;;;;;;4987980;28;20432;-76
2023/10/24 01:10:53;;;;;;;12.10;10.67;;;13.80;99.90;;;;;;5001141;28;20181;-76
2023/10/24 01:13:18;;;;;;;11.60;10.47;;;13.80;99.90;;;;;;4990869;28;20664;-76
2023/10/24 01:15:44;;;;;;;10.30;9.27;;;13.80;99.90;;;;;;4985137;28;20736;-76
2023/10/24 01:18:10;;;;;;;12.67;10.90;;;13.80;99.90;;;;;;4989927;28;20178;-75
2023/10/24 01:20:39;;;;;;;10.67;9.57;;;13.90;99.90;;;;;;4994015;28;20712;-76
2023/10/24 01:23:09;;;;;;;12.93;10.20;;;13.90;99.90;;;;;;4991032;28;20649;-76
2023/10/24 01:25:39;;;;;;;11.90;10.30;;;13.90;99.90;;;;;;4997339;28;20464;-75
2023/10/24 01:28:05;;;;;;;10.93;9.77;;;14.00;99.90;;;;;;4993145;28;20424;-75
2023/10/24 01:30:32;;;;;;;15.10;11.50;;;14.00;99.90;;;;;;4994303;28;20449;-76
2023/10/24 01:32:57;;;;;;;13.90;11.43;;;14.00;99.90;;;;;;4991529;28;20436;-75
2023/10/24 01:35:23;;;;;;;12.07;10.80;;;14.00;99.90;;;;;;4987937;28;20551;-76
2023/10/24 01:37:48;;;;;;;13.17;11.77;;;14.00;99.90;;;;;;4988440;28;20262;-78
2023/10/24 01:40:14;;;;;;;15.57;11.83;;;14.00;99.90;;;;;;4993884;28;20212;-76
2023/10/24 01:42:39;;;;;;;13.07;11.27;;;14.00;99.90;;;;;;4994287;28;20641;-76
2023/10/24 01:45:06;;;;;;;15.17;12.37;;;14.10;99.90;;;;;;4992618;28;20231;-75
2023/10/24 01:47:31;;;;;;;15.03;11.70;;;14.00;99.90;;;;;;4996063;28;20626;-76
2023/10/24 01:49:57;;;;;;;17.77;12.23;;;14.00;99.90;;;;;;4995830;28;20520;-77
2023/10/24 01:52:22;;;;;;;16.17;12.17;;;13.90;99.90;;;;;;4994804;28;20208;-76
2023/10/24 01:54:48;;;;;;;15.27;12.80;;;13.90;99.90;;;;;;4995180;28;20569;-76
2023/10/24 01:57:15;;;;;;;14.70;13.17;;;13.90;99.90;;;;;;4999162;28;20808;-75
2023/10/24 01:59:41;;;;;;;15.83;14.13;;;13.90;99.90;;;;;;4995690;28;20296;-77
2023/10/24 02:02:06;;;;;;;14.43;12.90;;;13.90;99.90;;;;;;4984696;28;20424;-77
2023/10/24 02:04:32;;;;;;;17.00;13.70;;;13.90;99.90;;;;;;4999403;28;20918;-78
2023/10/24 02:06:58;;;;;;;17.20;13.73;;;13.90;99.90;;;;;;4991619;28;20216;-78
2023/10/24 02:09:23;;;;;;;14.27;12.77;;;14.00;99.90;;;;;;4995248;28;20203;-77
2023/10/24 02:11:49;;;;;;;15.87;14.13;;;13.90;99.90;;;;;;5002310;28;20184;-79
2023/10/24 02:14:14;;;;;;;15.80;14.10;;;13.90;99.90;;;;;;5001327;28;20196;-78
2023/10/24 02:16:40;;;;;;;15.13;13.37;;;13.90;99.90;;;;;;4993790;28;20570;-79
2023/10/24 02:19:06;;;;;;;15.70;13.30;;;14.00;99.90;;;;;;4996850;28;20205;-77
2023/10/24 02:21:31;;;;;;;20.50;14.97;;;14.00;99.90;;;;;;4995703;28;20181;-77
2023/10/24 02:23:58;;;;;;;15.23;13.53;;;14.00;99.90;;;;;;4993067;28;20217;-77
2023/10/24 02:26:23;;;;;;;15.37;13.43;;;13.90;99.90;;;;;;4992712;28;20181;-78
2023/10/24 02:28:49;;;;;;;18.23;13.80;;;13.90;99.90;;;;;;5026440;28;20451;-77
2023/10/24 02:31:14;;;;;;;15.07;13.57;;;14.00;99.90;;;;;;4997743;28;20632;-78
2023/10/24 02:33:41;;;;;;;14.60;13.10;;;14.00;99.90;;;;;;5006504;28;20185;-79
2023/10/24 02:36:14;;;;;;;14.60;12.50;;;14.00;99.90;;;;;;4995644;28;20191;-78
2023/10/24 02:38:39;;;;;;;16.13;13.43;;;14.00;99.90;;;;;;5004368;28;20515;-76
2023/10/24 02:41:05;;;;;;;20.07;13.30;;;14.00;99.90;;;;;;4992933;28;20598;-76
2023/10/24 02:43:31;;;;;;;15.17;13.43;;;13.90;99.90;;;;;;4998435;28;20263;-76
2023/10/24 02:46:00;;;;;;;22.13;13.93;;;14.00;99.90;;;;;;5003615;28;20217;-77
2023/10/24 02:48:26;;;;;;;15.23;13.10;;;14.00;99.90;;;;;;5002896;28;20591;-77
2023/10/24 02:50:55;;;;;;;14.33;12.77;;;14.00;99.90;;;;;;4999337;28;20433;-75
2023/10/24 02:53:21;;;;;;;15.20;13.20;;;14.00;99.90;;;;;;5002371;28;20208;-74
2023/10/24 02:55:48;;;;;;;14.50;13.00;;;13.90;99.90;;;;;;4999051;28;20432;-75
2023/10/24 02:58:14;;;;;;;13.43;12.17;;;13.90;99.90;;;;;;4999312;28;20988;-76
2023/10/24 03:00:40;;;;;;;14.93;13.33;;;14.00;99.90;;;;;;5006604;28;20454;-75
2023/10/24 03:03:05;;;;;;;16.37;12.40;;;14.00;99.90;;;;;;4996626;28;20797;-75
2023/10/24 03:05:31;;;;;;;14.67;13.17;;;14.00;99.90;;;;;;4999482;28;20205;-77
2023/10/24 03:07:57;;;;;;;15.40;13.70;;;14.00;99.90;;;;;;4983762;28;20173;-77
2023/10/24 03:10:26;;;;;;;15.87;13.83;;;13.90;99.90;;;;;;5022198;28;20807;-76
2023/10/24 03:12:52;;;;;;;16.33;14.67;;;13.90;99.90;;;;;;5002412;28;20285;-77
2023/10/24 03:15:18;;;;;;;15.57;13.97;;;13.90;99.90;;;;;;5003414;28;20432;-75
2023/10/24 03:18:00;;;;;;;14.40;13.00;;;13.90;99.90;;;;;;4970097;28;21068;-75
2023/10/24 03:20:26;;;;;;;15.70;14.03;;;13.90;99.90;;;;;;5000877;28;20453;-76
2023/10/24 03:22:52;;;;;;;16.30;12.10;;;13.90;99.90;;;;;;5001153;28;20459;-76
2023/10/24 03:25:17;;;;;;;16.70;14.07;;;13.90;99.90;;;;;;4997415;28;20623;-75
2023/10/24 03:27:43;;;;;;;16.23;13.20;;;14.00;99.90;;;;;;4998819;28;20230;-75
2023/10/24 03:30:09;;;;;;;14.70;13.20;;;14.00;99.90;;;;;;5000200;28;20579;-76
2023/10/24 03:32:34;;;;;;;15.03;13.53;;;13.90;99.90;;;;;;4999033;28;20182;-77
2023/10/24 03:35:00;;;;;;;14.70;13.30;;;14.00;99.90;;;;;;4997871;28;20188;-75
2023/10/24 03:37:25;;;;;;;13.60;12.17;;;14.00;99.90;;;;;;5001636;28;20186;-76
2023/10/24 03:39:51;;;;;;;15.17;13.20;;;14.00;99.90;;;;;;5007001;28;20571;-77
2023/10/24 03:42:17;;;;;;;15.37;13.70;;;14.00;99.90;;;;;;4992232;28;20201;-77
2023/10/24 03:44:42;;;;;;;18.83;13.30;;;14.00;99.90;;;;;;4999904;28;20324;-76
2023/10/24 03:47:08;;;;;;;14.27;12.77;;;14.00;99.90;;;;;;4999641;28;20177;-77
2023/10/24 03:49:34;;;;;;;15.77;13.80;;;14.00;99.90;;;;;;5001219;28;20193;-76
2023/10/24 03:51:59;;;;;;;16.57;13.50;;;14.00;99.90;;;;;;5020982;28;20185;-78
2023/10/24 03:54:26;;;;;;;20.90;14.30;;;14.00;99.90;;;;;;4998755;28;20596;-77
2023/10/24 03:56:51;;;;;;;14.33;12.93;;;14.00;99.90;;;;;;4997676;28;20189;-77
2023/10/24 03:59:17;;;;;;;15.70;13.43;;;14.00;99.90;;;;;;4998906;28;20444;-76
2023/10/24 04:01:42;;;;;;;17.60;14.57;;;14.00;99.90;;;;;;5002363;28;20332;-77
2023/10/24 04:04:08;;;;;;;19.20;14.50;;;14.10;99.90;;;;;;4998217;28;20584;-76
2023/10/24 04:06:34;;;;;;;17.80;13.97;;;14.00;99.90;;;;;;4996013;28;20595;-76
2023/10/24 04:09:04;;;;;;;14.70;13.20;;;14.10;99.90;;;;;;5001725;28;20185;-76
2023/10/24 04:11:31;;;;;;;16.77;14.30;;;14.10;99.90;;;;;;4999098;28;20165;-76
2023/10/24 04:13:58;;;;;;;14.50;13.10;;;14.10;99.90;;;;;;4995082;28;20821;-77
2023/10/24 04:16:23;;;;;;;15.27;13.67;;;14.10;99.90;;;;;;5001975;28;20417;-75
2023/10/24 04:18:49;;;;;;;21.63;13.73;;;14.10;99.90;;;;;;4999380;28;20791;-77
2023/10/24 04:21:15;;;;;;;15.00;13.50;;;14.10;99.90;;;;;;4997553;28;20205;-75
2023/10/24 04:23:41;;;;;;;17.00;13.67;;;14.10;99.90;;;;;;4998896;28;20555;-75
2023/10/24 04:26:06;;;;;;;13.30;12.00;;;14.20;99.90;;;;;;4994770;28;20464;-77
2023/10/24 04:28:32;;;;;;;14.40;12.90;;;14.20;99.90;;;;;;4997096;28;20269;-76
2023/10/24 04:30:58;;;;;;;15.83;14.27;;;14.10;99.90;;;;;;4998758;28;20249;-75
2023/10/24 04:33:23;;;;;;;16.10;13.20;;;14.20;99.90;;;;;;4994360;28;20177;-75
2023/10/24 04:35:51;;;;;;;15.93;14.33;;;14.10;99.90;;;;;;4997946;28;20179;-76
2023/10/24 04:38:17;;;;;;;16.20;14.50;;;14.10;99.90;;;;;;4995861;28;20192;-75
2023/10/24 04:40:43;;;;;;;15.83;13.60;;;14.10;99.90;;;;;;4994192;28;20464;-76
2023/10/24 04:43:09;;;;;;;14.27;12.87;;;14.10;99.90;;;;;;4998660;28;20455;-75
2023/10/24 04:45:38;;;;;;;15.00;13.50;;;14.10;99.90;;;;;;4995000;28;20292;-75
2023/10/24 04:48:05;;;;;;;15.40;13.80;;;14.10;99.90;;;;;;4994310;28;20423;-77
2023/10/24 04:50:31;;;;;;;16.57;14.87;;;14.10;99.90;;;;;;4995937;28;20455;-75
2023/10/24 04:52:57;;;;;;;15.40;13.20;;;14.10;99.90;;;;;;4994458;28;20432;-75
2023/10/24 04:55:23;;;;;;;16.13;14.43;;;14.10;99.90;;;;;;4998273;28;20421;-76
2023/10/24 04:57:49;;;;;;;16.80;14.07;;;14.20;99.90;;;;;;4998414;28;20423;-74
2023/10/24 05:00:15;;;;;;;15.00;12.90;;;14.20;99.90;;;;;;4991535;28;20558;-75
2023/10/24 05:02:42;;;;;;;15.90;13.47;;;14.10;99.90;;;;;;5001118;28;20462;-75
2023/10/24 05:05:09;;;;;;;14.80;13.30;;;14.10;99.90;;;;;;4995937;28;20479;-76
2023/10/24 05:07:35;;;;;;;14.77;13.27;;;14.10;99.90;;;;;;4999225;28;20481;-74
2023/10/24 05:10:00;;;;;;;14.90;13.37;;;14.10;99.90;;;;;;4995450;28;20455;-76
2023/10/24 05:12:26;;;;;;;15.47;13.20;;;14.10;99.90;;;;;;4993974;28;20944;-77
2023/10/24 05:14:52;;;;;;;17.37;12.97;;;14.10;99.90;;;;;;4999089;28;20177;-76
2023/10/24 05:17:18;;;;;;;14.93;12.73;;;14.10;99.90;;;;;;4998420;28;20431;-76
2023/10/24 05:19:43;;;;;;;15.33;12.57;;;14.10;99.90;;;;;;4996506;28;20205;-76
2023/10/24 05:22:10;;;;;;;14.03;12.60;;;14.10;99.90;;;;;;4996682;28;20385;-77
2023/10/24 05:24:37;;;;;;;14.87;12.20;;;14.10;99.90;;;;;;4995517;28;20205;-77
2023/10/24 05:27:04;;;;;;;14.20;12.63;;;14.10;99.90;;;;;;4992374;28;20444;-77
2023/10/24 05:29:34;;;;;;;13.90;12.47;;;14.10;99.90;;;;;;4995273;28;20428;-76
2023/10/24 05:32:01;;;;;;;13.13;11.70;;;14.10;99.90;;;;;;4993528;28;20428;-76
2023/10/24 05:34:29;;;;;;;14.53;12.50;;;14.10;99.90;;;;;;5000865;28;20427;-77
2023/10/24 05:36:55;;;;;;;15.93;12.23;;;14.10;99.90;;;;;;4996348;28;20554;-78
2023/10/24 05:39:21;;;;;;;14.77;10.87;;;14.10;99.90;;;;;;4999598;28;20493;-76
2023/10/24 05:41:47;;;;;;;14.37;12.97;;;14.10;99.90;;;;;;4993644;28;21319;-75
2023/10/24 05:44:14;;;;;;;14.50;12.67;;;14.20;99.90;;;;;;4991971;28;20177;-76
2023/10/24 05:46:40;;;;;;;14.13;12.10;;;14.20;99.90;;;;;;4997836;28;20413;-77
2023/10/24 05:49:06;;;;;;;15.80;13.00;;;14.20;99.90;;;;;;4994878;28;20587;-77
2023/10/24 05:51:32;;;;;;;15.83;12.90;;;14.20;99.90;;;;;;4992626;28;20177;-78
2023/10/24 05:53:58;;;;;;;16.80;12.67;;;14.10;99.90;;;;;;4998451;28;20519;-77
2023/10/24 05:56:23;;;;;;;16.70;12.90;;;14.00;99.90;;;;;;4995901;28;20177;-78
2023/10/24 05:58:49;;;;;;;13.13;11.50;;;14.00;99.90;;;;;;4994345;28;20201;-77
2023/10/24 06:01:15;;;;;;;17.20;13.43;;;14.00;99.90;;;;;;4996353;28;20187;-77
2023/10/24 06:03:40;;;;;;;14.70;12.53;;;14.00;99.90;;;;;;4993073;28;20228;-77
2023/10/24 06:06:07;;;;;;;18.50;13.93;;;14.00;99.90;;;;;;4994801;28;20205;-76
2023/10/24 06:08:33;;;;;;;16.63;13.17;;;13.90;99.90;;;;;;4998634;28;20173;-77
2023/10/24 06:11:02;;;;;;;16.10;13.20;;;13.90;99.90;;;;;;4996001;28;20451;-78
2023/10/24 06:13:28;;;;;;;17.70;13.60;;;13.90;99.90;;;;;;4994063;28;20201;-77
2023/10/24 06:15:55;;;;;;;15.47;13.70;;;14.00;99.90;;;;;;4995132;28;20506;-78
2023/10/24 06:18:20;;;;;;;16.23;14.53;;;14.00;99.90;;;;;;5025536;28;20673;-74
2023/10/24 06:20:47;;;;;;;18.50;13.93;;;14.00;99.90;;;;;;4993280;28;20823;-75
2023/10/24 06:23:13;;;;;;;19.27;14.90;;;14.00;99.90;;;;;;4992906;28;20177;-75
2023/10/24 06:25:39;;;;;;;15.20;13.50;;;14.00;99.90;;;;;;4992617;28;20468;-74
2023/10/24 06:28:06;;;;;;;18.30;15.50;;;14.00;99.90;;;;;;4996043;28;20479;-75
2023/10/24 06:30:32;;;;;;;19.67;15.10;;;14.00;99.90;;;;;;4995657;28;20424;-75
2023/10/24 06:32:58;;;;;;;16.90;15.10;;;14.10;99.90;;;;;;4988511;28;20443;-74
2023/10/24 06:35:23;;;;;;;15.30;13.73;;;14.00;99.90;;;;;;4991277;28;20590;-75
2023/10/24 06:37:49;;;;;;;17.13;14.77;;;14.00;99.90;;;;;;4997394;28;20181;-74
2023/10/24 06:40:15;;;;;;;15.83;14.10;;;14.00;99.90;;;;;;4989657;28;20257;-74
2023/10/24 06:42:40;;;;;;;15.90;13.87;;;13.90;99.90;;;;;;4987251;28;20904;-74
2023/10/24 06:45:07;;;;;;;18.10;13.87;;;13.90;99.90;;;;;;4993981;28;20209;-74
2023/10/24 06:47:32;;;;;;;17.00;13.90;;;14.00;99.90;;;;;;4986709;28;20185;-74
2023/10/24 06:49:58;;;;;;;17.03;13.77;;;14.00;99.90;;;;;;4993386;28;20456;-74
2023/10/24 06:52:24;;;;;;;15.37;13.50;;;14.10;99.90;;;;;;4991399;28;20203;-75
2023/10/24 06:54:49;;;;;;;17.20;14.70;;;14.10;99.90;;;;;;4993477;28;20181;-74
2023/10/24 06:57:15;;;;;;;23.27;15.83;;;14.20;99.90;;;;;;4997360;28;20193;-73
2023/10/24 06:59:40;;;;;;;15.40;12.63;;;14.20;99.90;;;;;;4997376;28;20694;-73
2023/10/24 07:02:06;;;;;;;16.93;15.10;;;14.20;99.90;;;;;;4996644;28;20203;-74
2023/10/24 07:04:32;;;;;;;17.70;12.53;;;14.20;99.90;;;;;;4994041;28;20649;-74
2023/10/24 07:06:57;;;;;;;15.47;12.20;;;14.20;99.90;;;;;;4998104;28;20184;-73
2023/10/24 07:09:23;;;;;;;23.67;13.80;;;14.30;99.90;;;;;;4986934;28;20205;-72
2023/10/24 07:11:49;;;;;;;16.17;13.00;;;14.30;99.90;;;;;;4999539;28;20247;-74
2023/10/24 07:14:14;;;;;;;15.70;11.93;;;14.40;99.90;;;;;;4991944;28;20229;-73
2023/10/24 07:16:40;;;;;;;14.03;11.77;;;14.40;99.90;;;;;;5001113;28;20255;-74
2023/10/24 07:19:05;;;;;;;20.07;13.07;;;14.50;99.90;;;;;;4996903;28;20216;-74
2023/10/24 07:21:31;;;;;;;16.03;11.80;;;14.50;99.90;;;;;;4993136;28;20185;-74
2023/10/24 07:23:58;;;;;;;17.23;15.37;;;14.50;99.90;;;;;;4997272;28;20720;-74
2023/10/24 07:26:23;;;;;;;15.17;13.00;;;14.60;99.90;;;;;;4997717;28;20270;-74
2023/10/24 07:28:49;;;;;;;17.47;13.37;;;14.60;99.90;;;;;;4996462;28;20946;-75
2023/10/24 07:31:15;;;;;;;11.57;10.47;;;14.60;99.90;;;;;;4993971;28;20182;-74
2023/10/24 07:33:41;;;;;;;15.03;11.13;;;14.60;99.90;;;;;;4995451;28;20244;-74
2023/10/24 07:36:08;;;;;;;12.30;9.73;;;14.60;99.90;;;;;;4991868;28;20614;-74
2023/10/24 07:38:33;;;;;;;13.30;11.47;;;14.60;99.90;;;;;;4997599;28;20432;-74
2023/10/24 07:40:59;;;;;;;14.87;12.10;;;14.60;99.90;;;;;;4998581;28;20432;-73
2023/10/24 07:43:25;;;;;;;13.33;11.93;;;14.60;99.90;;;;;;4997568;28;20203;-74
2023/10/24 07:45:51;;;;;;;17.57;12.07;;;14.60;99.90;;;;;;4998962;28;20224;-73
2023/10/24 07:48:17;;;;;;;14.63;11.57;;;14.60;99.90;;;;;;5001948;28;20208;-74
2023/10/24 07:50:56;;;;;;;13.83;12.20;;;14.60;99.90;;;;;;4994307;28;20296;-74
2023/10/24 07:53:23;;;;;;;16.53;12.50;;;14.60;99.90;;;;;;4990024;28;20437;-75
2023/10/24 07:55:50;;;;;;;13.03;11.73;;;14.60;99.90;;;;;;4997232;28;20923;-75
2023/10/24 07:58:18;;;;;;;13.17;11.77;;;14.60;99.90;;;;;;4996554;28;20446;-74
2023/10/24 08:00:47;;;;;;;12.40;11.13;;;14.60;99.90;;;;;;4997751;28;20547;-76
2023/10/24 08:03:14;;;;;;;15.10;11.60;;;14.60;99.90;;;;;;4996432;28;20438;-75
2023/10/24 08:05:40;;;;;;;11.97;10.60;;;14.70;99.90;;;;;;5003784;28;20508;-75
2023/10/24 08:08:06;;;;;;;16.17;11.70;;;14.70;99.90;;;;;;4994980;28;20817;-76
2023/10/24 08:10:33;;;;;;;13.23;11.83;;;14.70;99.90;;;;;;4998843;28;20443;-75
2023/10/24 08:13:02;;;;;;;12.10;10.00;;;14.70;99.90;;;;;;4996111;28;20418;-76
2023/10/24 08:15:28;;;;;;;12.30;10.87;;;14.60;99.90;;;;;;4996894;28;20475;-76
2023/10/24 08:17:54;;;;;;;13.97;11.00;;;14.60;99.90;;;;;;5003449;28;20479;-76
2023/10/24 08:20:20;;;;;;;10.90;8.80;;;14.60;99.90;;;;;;4999105;28;20444;-75
2023/10/24 08:22:46;;;;;;;10.53;9.03;;;14.70;99.90;;;;;;4997520;28;21084;-76
2023/10/24 08:25:12;;;;;;;9.20;8.20;;;14.70;99.90;;;;;;4994169;28;20525;-76
2023/10/24 08:27:38;;;;;;;15.13;13.47;;;14.70;99.90;;;;;;4998029;28;20436;-75
2023/10/24 08:30:04;;;;;;;11.57;9.13;;;14.70;99.90;;;;;;4996921;28;20458;-75
2023/10/24 08:32:30;;;;;;;12.50;9.97;;;14.60;99.90;;;;;;4995679;28;20215;-76
2023/10/24 08:34:56;;;;;;;13.40;8.80;;;14.60;99.90;;;;;;5009082;28;20915;-75
2023/10/24 08:37:22;;;;;;;10.50;7.90;;;14.60;99.90;;;;;;4999224;28;20563;-75
2023/10/24 08:39:48;;;;;;;7.87;7.10;;;14.60;99.90;;;;;;4997459;28;20242;-75
2023/10/24 08:42:14;;;;;;;11.80;8.83;;;14.60;99.90;;;;;;4991379;28;20433;-75
2023/10/24 08:44:40;;;;;;;10.07;9.07;;;14.60;99.90;;;;;;4998378;28;20995;-75
2023/10/24 08:47:08;;;;;;;9.27;8.27;;;14.60;99.90;;;;;;4998999;28;20452;-75
2023/10/24 08:49:36;;;;;;;10.60;8.23;;;14.60;99.90;;;;;;5000365;28;20858;-75
2023/10/24 08:52:02;;;;;;;8.20;7.50;;;14.60;99.90;;;;;;4992582;28;20444;-76
2023/10/24 08:54:28;;;;;;;9.20;8.30;;;14.70;99.90;;;;;;4998296;28;20531;-75
2023/10/24 08:56:54;;;;;;;9.70;7.67;;;14.70;99.90;;;;;;4991376;28;20504;-76
2023/10/24 08:59:21;;;;;;;10.50;9.40;;;14.60;99.90;;;;;;4993816;28;20418;-75
2023/10/24 09:01:49;;;;;;;11.67;8.73;;;14.70;99.90;;;;;;4993193;28;20905;-76
2023/10/24 09:04:15;;;;;;;13.33;8.73;;;14.70;99.90;;;;;;5001190;28;20446;-75
2023/10/24 09:06:41;;;;;;;9.70;8.70;;;14.70;99.90;;;;;;4996006;28;20421;-75
2023/10/24 09:09:06;;;;;;;9.77;8.80;;;14.80;99.90;;;;;;4998778;28;21130;-76
2023/10/24 09:11:56;;;;;;;10.17;9.03;;;14.80;99.90;;;;;;5002965;28;20193;-75
2023/10/24 09:14:23;;;;;;;9.37;8.47;;;14.80;99.90;;;;;;4996966;28;20557;-76
2023/10/24 09:17:00;;;;;;;9.67;7.70;;;14.90;99.90;;;;;;4996569;28;20463;-76
2023/10/24 09:19:27;;;;;;;8.23;7.43;;;14.80;99.90;;;;;;5000845;28;20886;-75
2023/10/24 09:21:56;;;;;;;10.30;8.30;;;14.80;99.90;;;;;;4997134;28;20431;-76
2023/10/24 09:24:22;;;;;;;10.93;8.90;;;14.90;99.90;;;;;;4995317;28;20570;-76
2023/10/24 09:26:55;;;;;;;7.53;6.83;;;14.90;99.90;;;;;;4997867;28;20436;-75
2023/10/24 09:29:24;;;;;;;8.40;7.60;;;14.90;99.90;;;;;;4991384;28;20456;-76
2023/10/24 09:31:50;;;;;;;8.40;7.63;;;14.90;99.90;;;;;;4994783;28;20809;-75
2023/10/24 09:34:17;;;;;;;7.93;7.10;;;14.90;99.90;;;;;;4992632;28;20436;-76
2023/10/24 09:36:44;;;;;;;8.70;7.90;;;15.00;99.90;;;;;;5002529;28;20436;-75
2023/10/24 09:39:11;;;;;;;7.53;6.83;;;15.00;99.90;;;;;;5000402;28;20442;-76
2023/10/24 09:41:44;;;;;;;8.97;8.07;;;15.00;99.90;;;;;;4994904;28;20428;-76
2023/10/24 09:44:11;;;;;;;9.40;7.20;;;14.90;99.90;;;;;;4995581;28;20420;-75
2023/10/24 09:46:37;;;;;;;8.57;7.40;;;14.90;99.90;;;;;;4991800;28;20983;-76
2023/10/24 09:49:07;;;;;;;8.57;7.73;;;15.00;99.90;;;;;;5025034;28;20545;-77
2023/10/24 09:51:37;;;;;;;8.50;7.40;;;15.00;99.90;;;;;;5001493;28;20408;-74
2023/10/24 09:54:04;;;;;;;8.77;7.67;;;15.00;99.90;;;;;;5021305;28;20439;-76
2023/10/24 09:56:30;;;;;;;9.50;8.50;;;15.00;99.90;;;;;;4993953;28;20440;-76
2023/10/24 09:58:56;;;;;;;9.63;8.30;;;15.00;99.90;;;;;;4996088;28;20436;-75
2023/10/24 10:01:22;;;;;;;10.10;7.70;;;15.00;99.90;;;;;;4995949;28;20173;-76
2023/10/24 10:03:51;;;;;;;8.77;7.87;;;14.90;99.90;;;;;;4974805;28;20972;-77
2023/10/24 10:06:17;;;;;;;8.47;7.67;;;14.90;99.90;;;;;;4994674;28;20551;-76
2023/10/24 10:08:44;;;;;;;7.87;7.07;;;15.00;99.90;;;;;;4998569;28;20431;-77
2023/10/24 10:11:10;;;;;;;9.77;8.80;;;14.90;99.90;;;;;;4997693;28;20517;-75
2023/10/24 10:13:53;;;;;;;9.47;8.60;;;14.90;99.90;;;;;;4992466;28;20420;-76
2023/10/24 10:16:24;;;;;;;8.13;7.23;;;15.00;99.90;;;;;;4994126;28;20427;-76
2023/10/24 10:19:07;;;;;;;9.77;8.77;;;15.00;99.90;;;;;;4988244;28;20554;-75
2023/10/24 10:22:07;;;;;;;8.97;7.80;;;15.00;99.90;;;;;;4995286;28;20551;-75
2023/10/24 10:24:51;;;;;;;9.93;8.23;;;15.00;99.90;;;;;;5005897;28;20428;-75
2023/10/24 10:27:28;;;;;;;10.00;8.50;;;15.00;99.90;;;;;;5003873;28;20822;-77
2023/10/24 10:30:28;;;;;;;9.70;8.70;;;15.00;99.90;;;;;;5000431;28;20432;-76
2023/10/24 10:33:15;;;;;;;10.83;9.17;;;15.00;99.90;;;;;;4992321;28;20427;-75
2023/10/24 10:35:58;;;;;;;9.10;7.80;;;15.00;99.90;;;;;;4983691;28;20450;-74
2023/10/24 10:38:39;;;;;;;9.63;8.40;;;15.00;99.90;;;;;;5002286;28;20533;-76
2023/10/24 10:41:33;;;;;;;8.97;8.07;;;15.00;99.90;;;;;;4999632;28;20542;-76
2023/10/24 10:44:01;;;;;;;9.07;8.17;;;15.00;99.90;;;;;;4997839;28;20612;-77
2023/10/24 10:46:29;;;;;;;9.80;8.80;;;15.00;99.90;;;;;;4997923;28;20477;-75
2023/10/24 10:49:06;;;;;;;10.63;8.90;;;15.10;99.90;;;;;;4992127;28;20543;-75
2023/10/24 10:51:39;;;;;;;10.20;9.10;;;15.10;99.90;;;;;;5000046;28;20428;-76
2023/10/24 10:54:29;;;;;;;9.60;8.70;;;15.00;99.90;;;;;;5000172;28;20432;-75
2023/10/24 10:56:59;;;;;;;10.13;9.03;;;15.00;99.90;;;;;;5001423;28;20436;-75
2023/10/24 10:59:34;;;;;;;9.83;8.83;;;15.10;99.90;;;;;;5001618;28;20432;-75
2023/10/24 11:02:18;;;;;;;9.13;8.07;;;15.10;99.90;;;;;;5004308;28;20435;-74
2023/10/24 11:04:43;;;;;;;9.30;8.40;;;15.20;99.90;;;;;;4999855;28;20998;-74
2023/10/24 11:07:09;;;;;;;9.23;8.30;;;15.20;99.90;;;;;;5005044;28;20420;-76
2023/10/24 11:09:37;;;;;;;12.50;8.97;;;15.20;99.90;;;;;;4997671;28;20261;-76
2023/10/24 11:12:21;;;;;;;9.17;8.20;;;15.30;99.90;;;;;;5005695;28;20251;-74
2023/10/24 11:15:06;;;;;;;8.60;7.80;;;15.30;99.90;;;;;;5002430;28;20423;-76
2023/10/24 11:17:32;;;;;;;14.07;7.60;;;15.20;99.90;;;;;;5001081;28;20514;-74
2023/10/24 11:19:59;;;;;;;10.73;8.03;;;15.20;99.90;;;;;;5004658;28;20502;-76
2023/10/24 11:22:25;;;;;;;11.93;7.93;;;15.20;99.90;;;;;;5002014;28;21519;-75
2023/10/24 11:24:50;;;;;;;9.27;8.30;;;15.30;99.90;;;;;;5002868;28;20467;-75
2023/10/24 11:27:16;;;;;;;14.80;9.77;;;15.30;99.90;;;;;;5000239;28;20437;-73
2023/10/24 11:29:43;;;;;;;9.57;8.40;;;15.40;99.90;;;;;;5002362;28;20217;-73
2023/10/24 11:32:08;;;;;;;10.37;8.63;;;15.40;99.90;;;;;;5003222;28;20205;-74
2023/10/24 11:34:34;;;;;;;9.50;7.80;;;15.40;99.90;;;;;;5002006;28;20455;-74
2023/10/24 11:37:00;;;;;;;13.17;9.90;;;15.40;99.90;;;;;;5000760;28;20208;-73
2023/10/24 11:39:26;;;;;;;16.27;9.60;;;15.40;99.90;;;;;;5000241;28;20587;-74
2023/10/24 11:41:52;;;;;;;9.80;8.80;;;15.40;99.90;;;;;;5020042;28;20232;-74
2023/10/24 11:44:18;;;;;;;9.30;8.40;;;15.50;99.90;;;;;;4991648;28;20428;-74
2023/10/24 11:46:44;;;;;;;9.00;7.87;;;15.50;99.90;;;;;;5003263;28;20169;-73
2023/10/24 11:49:13;;;;;;;8.80;8.00;;;15.50;99.90;;;;;;5003886;28;20282;-73
2023/10/24 11:51:38;;;;;;;9.03;8.10;;;15.50;99.90;;;;;;4999673;28;20421;-73
2023/10/24 11:54:06;;;;;;;10.37;9.17;;;15.50;99.90;;;;;;4987663;28;20436;-76
2023/10/24 11:56:33;;;;;;;10.17;9.10;;;15.50;99.90;;;;;;4989943;28;20220;-75
2023/10/24 11:59:00;;;;;;;9.80;8.90;;;15.60;99.90;;;;;;4998956;28;20454;-76
2023/10/24 12:01:29;;;;;;;9.73;8.73;;;15.70;99.90;;;;;;4999110;28;20420;-75
2023/10/24 12:03:57;;;;;;;9.93;8.63;;;15.80;99.90;;;;;;4998004;28;20527;-76
2023/10/24 12:06:25;;;;;;;10.00;9.10;;;15.80;99.90;;;;;;4999518;28;20464;-76
2023/10/24 12:08:50;;;;;;;9.23;8.30;;;15.90;99.90;;;;;;4999857;28;20868;-76
2023/10/24 12:11:17;;;;;;;9.93;9.00;;;15.90;99.90;;;;;;4997747;28;20421;-75
2023/10/24 12:13:43;;;;;;;9.53;7.83;;;15.80;99.90;;;;;;5000401;28;20175;-75
2023/10/24 12:16:09;;;;;;;8.87;8.07;;;15.80;99.90;;;;;;5004452;28;20676;-75
2023/10/24 12:18:36;;;;;;;8.77;7.87;;;15.90;99.90;;;;;;5000219;28;20428;-75
2023/10/24 12:21:02;;;;;;;8.90;7.80;;;15.90;99.90;;;;;;5003227;28;20429;-76
2023/10/24 12:23:28;;;;;;;9.17;8.20;;;16.00;99.90;;;;;;4996699;28;20437;-76
2023/10/24 12:25:53;;;;;;;9.17;8.20;;;15.90;99.90;;;;;;5000903;28;20212;-75
2023/10/24 12:28:19;;;;;;;8.87;7.60;;;15.90;99.90;;;;;;5009314;28;20177;-79
2023/10/24 12:30:46;;;;;;;9.00;7.40;;;16.00;99.90;;;;;;5006974;28;20479;-76
2023/10/24 12:33:12;;;;;;;11.03;7.73;;;15.90;99.90;;;;;;5003031;28;20288;-76